sensor_id;sensor_type;location;lat;lon;timestamp;temperature;humidity
6930;DHT22;3504;52.616;13.238;2022-11-20T00:02:17;0.82;88.60
6930;DHT22;3504;52.616;13.238;2022-11-20T00:07:17;0.76;88.66
6930;DHT22;3504;52.616;13.238;2022-11-20T00:12:19;0.76;88.63
6930;DHT22;3504;52.616;13.238;2022-11-20T00:17:19;0.73;88.66
6930;DHT22;3504;52.616;13.238;2022-11-20T00:22:21;0.73;88.59
6930;DHT22;3504;52.616;13.238;2022-11-20T00:27:22;0.69;88.63
6930;DHT22;3504;52.616;13.238;2022-11-20T00:32:23;0.65;88.62
6930;DHT22;3504;52.616;13.238;2022-11-20T00:37:24;0.68;88.85
6930;DHT22;3504;52.616;13.238;2022-11-20T00:42:25;0.69;88.65
6930;DHT22;3504;52.616;13.238;2022-11-20T00:47:26;0.72;88.61
6930;DHT22;3504;52.616;13.238;2022-11-20T00:52:27;0.70;88.22
6930;DHT22;3504;52.616;13.238;2022-11-20T00:57:28;0.73;88.09
6930;DHT22;3504;52.616;13.238;2022-11-20T01:02:29;0.72;88.04
6930;DHT22;3504;52.616;13.238;2022-11-20T01:07:31;0.76;88.16
6930;DHT22;3504;52.616;13.238;2022-11-20T01:12:33;0.73;87.80
6930;DHT22;3504;52.616;13.238;2022-11-20T01:17:34;0.72;87.99
6930;DHT22;3504;52.616;13.238;2022-11-20T01:22:35;0.72;87.96
6930;DHT22;3504;52.616;13.238;2022-11-20T01:27:36;0.72;88.04
6930;DHT22;3504;52.616;13.238;2022-11-20T01:32:38;0.73;87.54
6930;DHT22;3504;52.616;13.238;2022-11-20T01:37:38;0.68;88.08
6930;DHT22;3504;52.616;13.238;2022-11-20T01:42:48;0.69;87.90
6930;DHT22;3504;52.616;13.238;2022-11-20T01:48:11;0.69;87.85
6930;DHT22;3504;52.616;13.238;2022-11-20T01:53:15;0.69;88.00
6930;DHT22;3504;52.616;13.238;2022-11-20T01:58:22;0.75;87.89
6930;DHT22;3504;52.616;13.238;2022-11-20T02:03:26;0.76;87.83
6930;DHT22;3504;52.616;13.238;2022-11-20T02:08:27;0.73;87.88
6930;DHT22;3504;52.616;13.238;2022-11-20T02:13:30;0.80;87.95
6930;DHT22;3504;52.616;13.238;2022-11-20T02:18:46;0.80;87.77
6930;DHT22;3504;52.616;13.238;2022-11-20T02:24:19;0.82;87.82
6930;DHT22;3504;52.616;13.238;2022-11-20T02:29:37;0.83;87.71
6930;DHT22;3504;52.616;13.238;2022-11-20T02:34:39;0.82;87.66
6930;DHT22;3504;52.616;13.238;2022-11-20T02:39:40;0.73;87.37
6930;DHT22;3504;52.616;13.238;2022-11-20T02:44:42;0.65;87.57
6930;DHT22;3504;52.616;13.238;2022-11-20T02:49:43;0.61;87.67
6930;DHT22;3504;52.616;13.238;2022-11-20T02:54:44;0.61;87.57
6930;DHT22;3504;52.616;13.238;2022-11-20T02:59:45;0.59;87.42
6930;DHT22;3504;52.616;13.238;2022-11-20T03:04:46;0.58;87.54
6930;DHT22;3504;52.616;13.238;2022-11-20T03:09:47;0.57;87.36
6930;DHT22;3504;52.616;13.238;2022-11-20T03:14:49;0.57;87.17
6930;DHT22;3504;52.616;13.238;2022-11-20T03:19:49;0.55;87.45
6930;DHT22;3504;52.616;13.238;2022-11-20T03:24:51;0.61;87.40
6930;DHT22;3504;52.616;13.238;2022-11-20T03:29:52;0.62;87.39
6930;DHT22;3504;52.616;13.238;2022-11-20T03:34:53;0.68;87.38
6930;DHT22;3504;52.616;13.238;2022-11-20T03:39:54;0.61;86.90
6930;DHT22;3504;52.616;13.238;2022-11-20T03:44:55;0.57;87.05
6930;DHT22;3504;52.616;13.238;2022-11-20T03:49:56;0.59;86.97
6930;DHT22;3504;52.616;13.238;2022-11-20T03:54:58;0.57;87.08
6930;DHT22;3504;52.616;13.238;2022-11-20T03:59:58;0.58;86.88
6930;DHT22;3504;52.616;13.238;2022-11-20T04:05:00;0.49;86.67
6930;DHT22;3504;52.616;13.238;2022-11-20T04:10:01;0.48;86.83
6930;DHT22;3504;52.616;13.238;2022-11-20T04:15:02;0.51;86.80
6930;DHT22;3504;52.616;13.238;2022-11-20T04:20:03;0.51;86.89
6930;DHT22;3504;52.616;13.238;2022-11-20T04:25:05;0.45;86.53
6930;DHT22;3504;52.616;13.238;2022-11-20T04:30:07;0.44;86.70
6930;DHT22;3504;52.616;13.238;2022-11-20T04:35:08;0.40;86.63
6930;DHT22;3504;52.616;13.238;2022-11-20T04:40:09;0.34;86.36
6930;DHT22;3504;52.616;13.238;2022-11-20T04:45:11;0.34;86.67
6930;DHT22;3504;52.616;13.238;2022-11-20T04:50:12;0.33;86.41
6930;DHT22;3504;52.616;13.238;2022-11-20T04:55:13;0.31;86.34
6930;DHT22;3504;52.616;13.238;2022-11-20T05:00:14;0.28;86.65
6930;DHT22;3504;52.616;13.238;2022-11-20T05:05:16;0.34;86.74
6930;DHT22;3504;52.616;13.238;2022-11-20T05:10:17;0.33;86.63
6930;DHT22;3504;52.616;13.238;2022-11-20T05:15:19;0.38;86.81
6930;DHT22;3504;52.616;13.238;2022-11-20T05:20:20;0.37;86.59
6930;DHT22;3504;52.616;13.238;2022-11-20T05:25:22;0.36;86.95
6930;DHT22;3504;52.616;13.238;2022-11-20T05:30:22;0.34;86.95
6930;DHT22;3504;52.616;13.238;2022-11-20T05:35:24;0.37;87.08
6930;DHT22;3504;52.616;13.238;2022-11-20T05:40:24;0.37;87.20
6930;DHT22;3504;52.616;13.238;2022-11-20T05:45:26;0.37;87.02
6930;DHT22;3504;52.616;13.238;2022-11-20T05:50:28;0.37;87.22
6930;DHT22;3504;52.616;13.238;2022-11-20T05:55:29;0.36;87.26
6930;DHT22;3504;52.616;13.238;2022-11-20T06:00:30;0.40;86.98
6930;DHT22;3504;52.616;13.238;2022-11-20T06:05:33;0.41;87.09
6930;DHT22;3504;52.616;13.238;2022-11-20T06:10:33;0.45;87.01
6930;DHT22;3504;52.616;13.238;2022-11-20T06:15:35;0.45;86.99
6930;DHT22;3504;52.616;13.238;2022-11-20T06:20:36;0.45;86.86
6930;DHT22;3504;52.616;13.238;2022-11-20T06:25:42;0.49;86.87
6930;DHT22;3504;52.616;13.238;2022-11-20T06:30:46;0.47;86.86
6930;DHT22;3504;52.616;13.238;2022-11-20T06:35:48;0.47;86.81
6930;DHT22;3504;52.616;13.238;2022-11-20T06:40:48;0.47;86.70
6930;DHT22;3504;52.616;13.238;2022-11-20T06:45:53;0.49;86.94
6930;DHT22;3504;52.616;13.238;2022-11-20T06:50:55;0.51;87.04
6930;DHT22;3504;52.616;13.238;2022-11-20T06:55:57;0.51;86.83
6930;DHT22;3504;52.616;13.238;2022-11-20T07:01:02;0.57;86.79
6930;DHT22;3504;52.616;13.238;2022-11-20T07:06:04;0.59;86.66
6930;DHT22;3504;52.616;13.238;2022-11-20T07:11:06;0.65;86.94
6930;DHT22;3504;52.616;13.238;2022-11-20T07:16:08;0.68;86.69
6930;DHT22;3504;52.616;13.238;2022-11-20T07:21:10;0.62;86.58
6930;DHT22;3504;52.616;13.238;2022-11-20T07:26:12;0.65;86.93
6930;DHT22;3504;52.616;13.238;2022-11-20T07:31:12;0.70;86.88
6930;DHT22;3504;52.616;13.238;2022-11-20T07:36:15;0.78;86.86
6930;DHT22;3504;52.616;13.238;2022-11-20T07:41:15;0.79;86.86
6930;DHT22;3504;52.616;13.238;2022-11-20T07:46:17;0.88;86.74
6930;DHT22;3504;52.616;13.238;2022-11-20T07:51:17;1.03;86.76
6930;DHT22;3504;52.616;13.238;2022-11-20T07:56:19;1.13;86.54
6930;DHT22;3504;52.616;13.238;2022-11-20T08:01:20;1.22;86.29
6930;DHT22;3504;52.616;13.238;2022-11-20T08:06:22;1.29;86.19
6930;DHT22;3504;52.616;13.238;2022-11-20T08:11:22;1.36;85.72
6930;DHT22;3504;52.616;13.238;2022-11-20T08:16:48;1.30;85.91
6930;DHT22;3504;52.616;13.238;2022-11-20T08:21:49;1.27;85.49
6930;DHT22;3504;52.616;13.238;2022-11-20T08:26:51;1.34;85.88
6930;DHT22;3504;52.616;13.238;2022-11-20T08:31:51;1.40;85.74
6930;DHT22;3504;52.616;13.238;2022-11-20T08:36:53;1.47;85.40
6930;DHT22;3504;52.616;13.238;2022-11-20T08:41:53;1.48;85.19
6930;DHT22;3504;52.616;13.238;2022-11-20T08:46:55;1.62;84.98
6930;DHT22;3504;52.616;13.238;2022-11-20T08:51:56;1.62;84.35
6930;DHT22;3504;52.616;13.238;2022-11-20T08:56:58;1.58;84.46
6930;DHT22;3504;52.616;13.238;2022-11-20T09:01:59;1.54;84.46
6930;DHT22;3504;52.616;13.238;2022-11-20T09:07:01;1.50;84.62
6930;DHT22;3504;52.616;13.238;2022-11-20T09:12:01;1.46;84.39
6930;DHT22;3504;52.616;13.238;2022-11-20T09:17:03;1.57;84.46
6930;DHT22;3504;52.616;13.238;2022-11-20T09:22:04;1.64;84.61
6930;DHT22;3504;52.616;13.238;2022-11-20T09:27:06;1.70;84.22
6930;DHT22;3504;52.616;13.238;2022-11-20T09:32:06;1.85;83.88
6930;DHT22;3504;52.616;13.238;2022-11-20T09:37:08;1.82;83.65
6930;DHT22;3504;52.616;13.238;2022-11-20T09:42:47;1.95;83.71
6930;DHT22;3504;52.616;13.238;2022-11-20T09:58:57;1.85;83.21
6930;DHT22;3504;52.616;13.238;2022-11-20T10:04:20;1.99;83.93
6930;DHT22;3504;52.616;13.238;2022-11-20T10:09:30;2.05;83.73
6930;DHT22;3504;52.616;13.238;2022-11-20T10:30:40;2.26;83.03
6930;DHT22;3504;52.616;13.238;2022-11-20T10:35:49;2.35;83.12
6930;DHT22;3504;52.616;13.238;2022-11-20T10:40:59;2.46;82.17
6930;DHT22;3504;52.616;13.238;2022-11-20T10:46:22;2.50;81.55
6930;DHT22;3504;52.616;13.238;2022-11-20T10:57:42;2.60;82.26
6930;DHT22;3504;52.616;13.238;2022-11-20T11:02:52;2.40;81.15
6930;DHT22;3504;52.616;13.238;2022-11-20T11:07:55;2.33;82.25
6930;DHT22;3504;52.616;13.238;2022-11-20T11:12:57;2.26;81.72
6930;DHT22;3504;52.616;13.238;2022-11-20T11:17:58;2.12;81.89
6930;DHT22;3504;52.616;13.238;2022-11-20T11:23:00;2.06;82.90
6930;DHT22;3504;52.616;13.238;2022-11-20T11:28:04;1.96;83.22
6930;DHT22;3504;52.616;13.238;2022-11-20T11:33:10;1.89;83.77
6930;DHT22;3504;52.616;13.238;2022-11-20T11:38:16;1.95;84.23
6930;DHT22;3504;52.616;13.238;2022-11-20T11:43:25;1.96;83.85
6930;DHT22;3504;52.616;13.238;2022-11-20T11:53:58;2.03;83.55
6930;DHT22;3504;52.616;13.238;2022-11-20T11:59:05;2.01;83.53
6930;DHT22;3504;52.616;13.238;2022-11-20T12:09:46;2.12;83.20
6930;DHT22;3504;52.616;13.238;2022-11-20T12:14:49;2.20;82.53
6930;DHT22;3504;52.616;13.238;2022-11-20T12:19:52;2.28;82.76
6930;DHT22;3504;52.616;13.238;2022-11-20T12:25:12;2.36;82.57
6930;DHT22;3504;52.616;13.238;2022-11-20T12:30:16;2.33;82.36
6930;DHT22;3504;52.616;13.238;2022-11-20T12:35:56;2.37;82.07
6930;DHT22;3504;52.616;13.238;2022-11-20T12:52:38;2.76;81.36
6930;DHT22;3504;52.616;13.238;2022-11-20T12:58:05;2.70;81.25
6930;DHT22;3504;52.616;13.238;2022-11-20T13:03:39;2.52;81.40
6930;DHT22;3504;52.616;13.238;2022-11-20T13:43:07;2.12;82.79
6930;DHT22;3504;52.616;13.238;2022-11-20T13:48:23;2.01;82.93
6930;DHT22;3504;52.616;13.238;2022-11-20T14:04:57;1.88;83.55
6930;DHT22;3504;52.616;13.238;2022-11-20T14:09:58;1.85;83.60
6930;DHT22;3504;52.616;13.238;2022-11-20T14:15:00;1.81;83.99
6930;DHT22;3504;52.616;13.238;2022-11-20T14:20:05;1.75;84.09
6930;DHT22;3504;52.616;13.238;2022-11-20T14:30:18;1.74;84.28
6930;DHT22;3504;52.616;13.238;2022-11-20T14:35:40;1.77;84.31
6930;DHT22;3504;52.616;13.238;2022-11-20T14:40:43;1.68;84.24
6930;DHT22;3504;52.616;13.238;2022-11-20T14:46:05;1.61;84.60
6930;DHT22;3504;52.616;13.238;2022-11-20T14:51:05;1.65;84.72
6930;DHT22;3504;52.616;13.238;2022-11-20T14:56:08;1.61;84.75
6930;DHT22;3504;52.616;13.238;2022-11-20T15:01:12;1.65;84.75
6930;DHT22;3504;52.616;13.238;2022-11-20T15:06:13;1.61;84.61
6930;DHT22;3504;52.616;13.238;2022-11-20T15:11:19;1.60;84.79
6930;DHT22;3504;52.616;13.238;2022-11-20T15:16:23;1.54;85.05
6930;DHT22;3504;52.616;13.238;2022-11-20T15:21:24;1.55;85.06
6930;DHT22;3504;52.616;13.238;2022-11-20T15:26:27;1.52;85.24
6930;DHT22;3504;52.616;13.238;2022-11-20T15:31:28;1.54;85.48
6930;DHT22;3504;52.616;13.238;2022-11-20T15:36:28;1.51;85.30
6930;DHT22;3504;52.616;13.238;2022-11-20T15:41:29;1.48;85.10
6930;DHT22;3504;52.616;13.238;2022-11-20T15:46:32;1.46;85.26
6930;DHT22;3504;52.616;13.238;2022-11-20T15:51:46;1.46;85.04
6930;DHT22;3504;52.616;13.238;2022-11-20T15:56:49;1.40;84.58
6930;DHT22;3504;52.616;13.238;2022-11-20T16:01:52;1.31;84.36
6930;DHT22;3504;52.616;13.238;2022-11-20T16:06:52;1.22;84.42
6930;DHT22;3504;52.616;13.238;2022-11-20T16:11:53;1.16;84.72
6930;DHT22;3504;52.616;13.238;2022-11-20T16:16:54;1.06;84.38
6930;DHT22;3504;52.616;13.238;2022-11-20T16:21:54;1.04;84.52
6930;DHT22;3504;52.616;13.238;2022-11-20T16:26:57;1.00;84.77
6930;DHT22;3504;52.616;13.238;2022-11-20T16:31:57;1.02;84.67
6930;DHT22;3504;52.616;13.238;2022-11-20T16:36:58;0.95;85.07
6930;DHT22;3504;52.616;13.238;2022-11-20T16:41:58;0.93;85.03
6930;DHT22;3504;52.616;13.238;2022-11-20T16:47:03;0.90;85.03
6930;DHT22;3504;52.616;13.238;2022-11-20T16:52:04;0.95;85.23
6930;DHT22;3504;52.616;13.238;2022-11-20T16:57:04;0.96;85.01
6930;DHT22;3504;52.616;13.238;2022-11-20T17:02:05;0.97;84.85
6930;DHT22;3504;52.616;13.238;2022-11-20T17:07:06;1.00;84.94
6930;DHT22;3504;52.616;13.238;2022-11-20T17:12:07;1.00;84.85
6930;DHT22;3504;52.616;13.238;2022-11-20T17:17:07;0.97;84.82
6930;DHT22;3504;52.616;13.238;2022-11-20T17:22:08;0.99;85.01
6930;DHT22;3504;52.616;13.238;2022-11-20T17:27:08;1.00;84.91
6930;DHT22;3504;52.616;13.238;2022-11-20T17:32:09;1.03;84.97
6930;DHT22;3504;52.616;13.238;2022-11-20T17:37:10;1.03;84.56
6930;DHT22;3504;52.616;13.238;2022-11-20T17:42:10;1.04;84.64
6930;DHT22;3504;52.616;13.238;2022-11-20T17:47:26;0.99;84.57
6930;DHT22;3504;52.616;13.238;2022-11-20T17:52:26;0.97;84.62
6930;DHT22;3504;52.616;13.238;2022-11-20T17:57:27;0.99;84.86
6930;DHT22;3504;52.616;13.238;2022-11-20T18:02:50;0.97;84.83
6930;DHT22;3504;52.616;13.238;2022-11-20T18:07:52;1.00;84.79
6930;DHT22;3504;52.616;13.238;2022-11-20T18:12:56;1.02;84.89
6930;DHT22;3504;52.616;13.238;2022-11-20T18:17:56;1.04;84.95
6930;DHT22;3504;52.616;13.238;2022-11-20T18:22:57;1.09;84.73
6930;DHT22;3504;52.616;13.238;2022-11-20T18:27:57;1.04;84.64
6930;DHT22;3504;52.616;13.238;2022-11-20T18:32:58;1.02;84.73
6930;DHT22;3504;52.616;13.238;2022-11-20T18:37:58;0.96;84.94
6930;DHT22;3504;52.616;13.238;2022-11-20T18:42:59;0.97;84.73
6930;DHT22;3504;52.616;13.238;2022-11-20T18:48:18;0.90;84.60
6930;DHT22;3504;52.616;13.238;2022-11-20T18:53:18;0.88;84.14
6930;DHT22;3504;52.616;13.238;2022-11-20T18:58:19;0.82;84.10
6930;DHT22;3504;52.616;13.238;2022-11-20T19:03:19;0.76;84.32
6930;DHT22;3504;52.616;13.238;2022-11-20T19:08:20;0.72;84.35
6930;DHT22;3504;52.616;13.238;2022-11-20T19:13:20;0.69;84.47
6930;DHT22;3504;52.616;13.238;2022-11-20T19:20:21;0.65;84.39
6930;DHT22;3504;52.616;13.238;2022-11-20T19:25:21;0.58;84.27
6930;DHT22;3504;52.616;13.238;2022-11-20T19:30:22;0.55;84.49
6930;DHT22;3504;52.616;13.238;2022-11-20T19:35:23;0.47;84.69
6930;DHT22;3504;52.616;13.238;2022-11-20T19:40:24;0.48;85.23
6930;DHT22;3504;52.616;13.238;2022-11-20T19:45:24;0.47;85.02
6930;DHT22;3504;52.616;13.238;2022-11-20T19:50:25;0.44;85.01
6930;DHT22;3504;52.616;13.238;2022-11-20T19:55:25;0.41;85.15
6930;DHT22;3504;52.616;13.238;2022-11-20T20:00:29;0.41;84.80
6930;DHT22;3504;52.616;13.238;2022-11-20T20:05:30;0.38;85.11
6930;DHT22;3504;52.616;13.238;2022-11-20T20:10:33;0.38;84.67
6930;DHT22;3504;52.616;13.238;2022-11-20T20:15:33;0.34;84.44
6930;DHT22;3504;52.616;13.238;2022-11-20T20:20:38;0.30;84.41
6930;DHT22;3504;52.616;13.238;2022-11-20T20:25:38;0.23;84.46
6930;DHT22;3504;52.616;13.238;2022-11-20T20:30:39;0.21;84.60
6930;DHT22;3504;52.616;13.238;2022-11-20T20:35:41;0.18;84.21
6930;DHT22;3504;52.616;13.238;2022-11-20T20:40:47;0.09;84.25
6930;DHT22;3504;52.616;13.238;2022-11-20T20:45:51;0.03;84.31
6930;DHT22;3504;52.616;13.238;2022-11-20T20:50:59;0.00;84.28
6930;DHT22;3504;52.616;13.238;2022-11-20T20:56:02;-0.11;84.32
6930;DHT22;3504;52.616;13.238;2022-11-20T21:01:10;-0.07;84.46
6930;DHT22;3504;52.616;13.238;2022-11-20T21:06:11;-0.06;84.32
6930;DHT22;3504;52.616;13.238;2022-11-20T21:11:15;-0.07;84.18
6930;DHT22;3504;52.616;13.238;2022-11-20T21:16:17;-0.09;83.90
6930;DHT22;3504;52.616;13.238;2022-11-20T21:21:17;-0.07;83.98
6930;DHT22;3504;52.616;13.238;2022-11-20T21:26:41;-0.11;83.71
6930;DHT22;3504;52.616;13.238;2022-11-20T21:31:42;-0.13;83.65
6930;DHT22;3504;52.616;13.238;2022-11-20T21:36:42;-0.25;83.68
6930;DHT22;3504;52.616;13.238;2022-11-20T21:41:43;-0.33;83.51
6930;DHT22;3504;52.616;13.238;2022-11-20T21:46:44;-0.33;83.67
6930;DHT22;3504;52.616;13.238;2022-11-20T21:51:45;-0.34;83.51
6930;DHT22;3504;52.616;13.238;2022-11-20T21:56:46;-0.35;83.50
6930;DHT22;3504;52.616;13.238;2022-11-20T22:01:47;-0.42;83.50
6930;DHT22;3504;52.616;13.238;2022-11-20T22:06:50;-0.41;83.36
6930;DHT22;3504;52.616;13.238;2022-11-20T22:11:51;-0.41;83.18
6930;DHT22;3504;52.616;13.238;2022-11-20T22:16:52;-0.55;82.74
6930;DHT22;3504;52.616;13.238;2022-11-20T22:21:52;-0.64;83.33
6930;DHT22;3504;52.616;13.238;2022-11-20T22:26:53;-0.69;83.19
6930;DHT22;3504;52.616;13.238;2022-11-20T22:31:54;-0.69;83.41
6930;DHT22;3504;52.616;13.238;2022-11-20T22:36:54;-0.69;83.27
6930;DHT22;3504;52.616;13.238;2022-11-20T22:41:55;-0.62;84.16
6930;DHT22;3504;52.616;13.238;2022-11-20T22:46:55;-0.64;83.41
6930;DHT22;3504;52.616;13.238;2022-11-20T22:51:56;-0.69;83.03
6930;DHT22;3504;52.616;13.238;2022-11-20T22:56:56;-0.76;82.84
6930;DHT22;3504;52.616;13.238;2022-11-20T23:01:57;-0.79;83.12
6930;DHT22;3504;52.616;13.238;2022-11-20T23:06:57;-0.79;82.75
6930;DHT22;3504;52.616;13.238;2022-11-20T23:11:58;-0.85;82.77
6930;DHT22;3504;52.616;13.238;2022-11-20T23:16:58;-0.87;82.72
6930;DHT22;3504;52.616;13.238;2022-11-20T23:21:59;-0.89;82.52
6930;DHT22;3504;52.616;13.238;2022-11-20T23:26:59;-0.90;82.25
6930;DHT22;3504;52.616;13.238;2022-11-20T23:32:00;-0.96;82.42
6930;DHT22;3504;52.616;13.238;2022-11-20T23:37:00;-0.96;82.31
6930;DHT22;3504;52.616;13.238;2022-11-20T23:42:01;-1.09;82.46
6930;DHT22;3504;52.616;13.238;2022-11-20T23:47:01;-1.07;83.10
6930;DHT22;3504;52.616;13.238;2022-11-20T23:52:02;-1.01;83.27
6930;DHT22;3504;52.616;13.238;2022-11-20T23:57:02;-1.06;83.06
